createdAt,value
2023-04-09T00:02:16.275Z,98696.63
2023-04-09T00:04:44.028Z,98697.53
2023-04-09T00:07:11.872Z,98704.22
2023-04-09T00:09:39.452Z,98701.75
2023-04-09T00:12:06.896Z,98703.53
2023-04-09T00:14:34.426Z,98704.38
2023-04-09T00:17:01.882Z,98698.13
2023-04-09T00:19:29.283Z,98693.31
2023-04-09T00:21:56.956Z,98687.09
2023-04-09T00:24:24.466Z,98690.03
2023-04-09T00:26:53.600Z,98689.06
2023-04-09T00:29:21.256Z,98681.03
2023-04-09T00:31:48.863Z,98681.03
2023-04-09T00:34:16.687Z,98681.97
2023-04-09T00:36:44.177Z,98683.66
2023-04-09T00:39:11.758Z,98700.69
2023-04-09T00:41:39.257Z,98699.34
2023-04-09T00:44:06.802Z,98701.38
2023-04-09T00:46:34.378Z,98700.78
2023-04-09T00:49:01.929Z,98699.34
2023-04-09T00:51:29.408Z,98701.81
2023-04-09T00:53:57.087Z,98700.91
2023-04-09T00:56:25.697Z,98708.47
2023-04-09T00:58:54.463Z,98706.66
2023-04-09T01:01:22.166Z,98704.28
2023-04-09T01:03:50.086Z,98701.66
2023-04-09T01:06:59.699Z,98699.38
2023-04-09T01:09:32.485Z,98697.09
2023-04-09T01:12:21.693Z,98697.09
2023-04-09T01:15:02.858Z,98697.41
2023-04-09T01:17:39.842Z,98697.56
2023-04-09T01:20:14.900Z,98684.41
2023-04-09T01:23:03.634Z,98682.94
2023-04-09T01:25:56.503Z,98690.59
2023-04-09T01:28:39.541Z,98695.84
2023-04-09T01:31:15.811Z,98694.38
2023-04-09T01:33:44.171Z,98696.16
2023-04-09T01:36:11.745Z,98702.91
2023-04-09T01:38:43.499Z,98701.09
2023-04-09T01:41:16.043Z,98701.94
2023-04-09T01:43:45.658Z,98703.59
2023-04-09T01:46:13.633Z,98709.00
2023-04-09T01:48:41.830Z,98710.81
2023-04-09T01:51:09.826Z,98711.63
2023-04-09T01:53:37.431Z,98707.88
2023-04-09T01:56:05.748Z,98706.53
2023-04-09T01:58:36.950Z,98707.66
2023-04-09T02:01:14.496Z,98702.09
2023-04-09T02:03:52.517Z,98701.78
2023-04-09T02:06:48.647Z,98703.44
2023-04-09T02:09:19.283Z,98714.50
2023-04-09T02:11:50.110Z,98717.47
2023-04-09T02:14:19.248Z,98706.94
2023-04-09T02:16:48.954Z,98712.88
2023-04-09T02:19:16.634Z,98710.13
2023-04-09T02:21:44.643Z,98717.84
2023-04-09T02:24:12.226Z,98717.53
2023-04-09T02:26:39.763Z,98715.72
2023-04-09T02:29:07.246Z,98718.22
2023-04-09T02:31:34.872Z,98712.88
2023-04-09T02:34:02.478Z,98719.28
2023-04-09T02:36:30.021Z,98721.09
2023-04-09T02:38:57.575Z,98730.19
2023-04-09T02:41:25.066Z,98727.69
2023-04-09T02:43:52.548Z,98720.91
2023-04-09T02:46:20.168Z,98722.22
2023-04-09T02:48:48.507Z,98724.47
2023-04-09T02:51:16.025Z,98723.84
2023-04-09T02:53:43.575Z,98719.59
2023-04-09T02:56:11.245Z,98721.91
2023-04-09T02:58:38.772Z,98719.16
2023-04-09T03:01:06.408Z,98712.75
2023-04-09T03:03:34.219Z,98712.88
2023-04-09T03:06:01.800Z,98712.06
2023-04-09T03:08:29.356Z,98707.13
2023-04-09T03:10:56.836Z,98703.81
2023-04-09T03:13:24.379Z,98709.22
2023-04-09T03:15:53.333Z,98703.44
2023-04-09T03:18:20.982Z,98713.00
2023-04-09T03:20:48.578Z,98712.16
2023-04-09T03:23:16.729Z,98712.31
2023-04-09T03:25:47.308Z,98712.16
2023-04-09T03:28:17.430Z,98712.00
2023-04-09T03:30:51.776Z,98720.72
2023-04-09T03:33:19.792Z,98713.13
2023-04-09T03:35:54.373Z,98713.63
2023-04-09T03:38:41.989Z,98713.81
2023-04-09T03:41:21.780Z,98719.22
2023-04-09T03:43:49.400Z,98716.28
2023-04-09T03:46:21.566Z,98717.78
2023-04-09T03:48:49.604Z,98710.41
2023-04-09T03:51:18.039Z,98716.72
2023-04-09T03:53:51.831Z,98713.78
2023-04-09T03:56:19.600Z,98716.09
2023-04-09T03:58:48.623Z,98719.72
2023-04-09T04:01:16.776Z,98726.13
2023-04-09T04:03:54.530Z,98715.59
2023-04-09T04:06:28.551Z,98717.75
2023-04-09T04:09:15.590Z,98711.53
2023-04-09T04:11:56.002Z,98712.34
2023-04-09T04:14:27.025Z,98723.53
2023-04-09T04:17:01.563Z,98722.69
2023-04-09T04:19:31.296Z,98712.69
2023-04-09T04:21:59.144Z,98718.50
2023-04-09T04:24:27.062Z,98713.72
2023-04-09T04:26:55.106Z,98713.88
2023-04-09T04:29:24.497Z,98723.22
2023-04-09T04:31:57.537Z,98722.69
2023-04-09T04:34:28.707Z,98718.25
2023-04-09T04:37:17.244Z,98724.06
2023-04-09T04:39:44.934Z,98723.88
2023-04-09T04:42:17.018Z,98725.41
2023-04-09T04:44:45.765Z,98725.16
2023-04-09T04:47:27.191Z,98729.25
2023-04-09T04:49:54.821Z,98735.06
2023-04-09T04:52:22.934Z,98728.31
2023-04-09T04:54:53.222Z,98727.34
2023-04-09T04:57:23.658Z,98739.59
2023-04-09T04:59:51.553Z,98732.56
2023-04-09T05:02:19.932Z,98736.81
2023-04-09T05:05:13.762Z,98736.38
2023-04-09T05:07:48.204Z,98733.88
2023-04-09T05:10:16.053Z,98736.25
2023-04-09T05:12:44.581Z,98740.19
2023-04-09T05:15:15.012Z,98739.44
2023-04-09T05:17:45.692Z,98744.38
2023-04-09T05:20:14.821Z,98744.44
2023-04-09T05:22:50.641Z,98740.97
2023-04-09T05:25:18.472Z,98747.91
2023-04-09T05:27:46.109Z,98743.34
2023-04-09T05:30:13.742Z,98745.38
2023-04-09T05:32:42.466Z,98750.81
2023-04-09T05:35:10.330Z,98753.97
2023-04-09T05:37:41.375Z,98752.81
2023-04-09T05:40:09.472Z,98748.00
2023-04-09T05:42:38.100Z,98744.66
2023-04-09T05:45:23.588Z,98744.31
2023-04-09T05:47:53.833Z,98741.00
2023-04-09T05:50:23.699Z,98735.88
2023-04-09T05:52:54.342Z,98735.97
2023-04-09T05:55:23.438Z,98731.81
2023-04-09T05:57:56.294Z,98727.66
2023-04-09T06:00:24.033Z,98719.38
2023-04-09T06:02:51.632Z,98719.00
2023-04-09T06:05:19.287Z,98722.81
2023-04-09T06:07:48.381Z,98724.69
2023-04-09T06:10:15.988Z,98725.31
2023-04-09T06:12:43.512Z,98721.38
2023-04-09T06:15:11.482Z,98719.13
2023-04-09T06:17:39.069Z,98719.53
2023-04-09T06:20:07.272Z,98721.19
2023-04-09T06:22:34.767Z,98712.72
2023-04-09T06:25:02.398Z,98718.97
2023-04-09T06:27:29.988Z,98730.06
2023-04-09T06:29:57.564Z,98730.59
2023-04-09T06:32:25.330Z,98742.56
2023-04-09T06:34:52.823Z,98739.38
2023-04-09T06:37:20.459Z,98730.38
2023-04-09T06:40:00.590Z,98723.72
2023-04-09T06:42:29.086Z,98722.22
2023-04-09T06:45:10.924Z,98725.34
2023-04-09T06:47:38.428Z,98726.00
2023-04-09T06:50:06.488Z,98722.25
2023-04-09T06:52:34.035Z,98726.75
2023-04-09T06:55:01.514Z,98733.84
2023-04-09T06:57:28.982Z,98731.53
2023-04-09T06:59:56.643Z,98727.72
2023-04-09T07:02:24.315Z,98726.47
2023-04-09T07:04:51.984Z,98724.91
2023-04-09T07:07:21.074Z,98726.38
2023-04-09T07:09:49.102Z,98724.38
2023-04-09T07:12:30.524Z,98727.31
2023-04-09T07:15:02.364Z,98728.13
2023-04-09T07:17:31.333Z,98735.09
2023-04-09T07:19:58.878Z,98731.09
2023-04-09T07:22:28.694Z,98738.72
2023-04-09T07:24:56.723Z,98744.84
2023-04-09T07:27:25.394Z,98752.47
2023-04-09T07:29:56.362Z,98751.06
2023-04-09T07:32:24.607Z,98753.69
2023-04-09T07:34:53.178Z,98754.28
2023-04-09T07:37:21.273Z,98750.94
2023-04-09T07:39:49.964Z,98749.00
2023-04-09T07:42:17.523Z,98750.31
2023-04-09T07:44:45.170Z,98752.59
2023-04-09T07:47:13.041Z,98745.16
2023-04-09T07:49:40.615Z,98748.34
2023-04-09T07:52:08.321Z,98757.34
2023-04-09T07:54:35.900Z,98751.38
2023-04-09T07:57:03.658Z,98745.38
2023-04-09T07:59:31.807Z,98745.16
2023-04-09T08:01:59.969Z,98749.72
2023-04-09T08:04:28.100Z,98750.34
2023-04-09T08:06:55.888Z,98746.38
2023-04-09T08:09:23.412Z,98749.41
2023-04-09T08:11:51.653Z,98745.25
2023-04-09T08:14:19.260Z,98745.38
2023-04-09T08:16:48.127Z,98738.91
2023-04-09T08:19:20.301Z,98749.47
2023-04-09T08:21:49.728Z,98742.88
2023-04-09T08:24:17.519Z,98749.50
2023-04-09T08:26:45.157Z,98759.97
2023-04-09T08:29:13.839Z,98757.06
2023-04-09T08:31:42.023Z,98762.59
2023-04-09T08:34:09.711Z,98764.44
2023-04-09T08:36:37.296Z,98768.03
2023-04-09T08:39:04.912Z,98769.72
2023-04-09T08:41:32.576Z,98771.53
2023-04-09T08:44:00.901Z,98778.06
2023-04-09T08:46:28.842Z,98772.16
2023-04-09T08:48:57.281Z,98776.19
2023-04-09T08:51:25.203Z,98772.09
2023-04-09T08:53:57.076Z,98772.69
2023-04-09T08:56:25.144Z,98781.53
2023-04-09T08:58:53.536Z,98772.84
2023-04-09T09:01:27.788Z,98782.53
2023-04-09T09:04:04.588Z,98770.50
2023-04-09T09:06:37.272Z,98772.28
2023-04-09T09:09:19.119Z,98779.34
2023-04-09T09:11:52.538Z,98779.03
2023-04-09T09:14:20.515Z,98779.84
2023-04-09T09:16:57.900Z,98777.97
2023-04-09T09:19:25.776Z,98778.00
2023-04-09T09:22:03.763Z,98781.72
2023-04-09T09:24:32.749Z,98770.03
2023-04-09T09:27:03.406Z,98769.56
2023-04-09T09:29:31.951Z,98769.78
2023-04-09T09:32:00.898Z,98777.78
2023-04-09T09:34:28.433Z,98763.53
2023-04-09T09:36:56.071Z,98765.84
2023-04-09T09:39:23.524Z,98771.66
2023-04-09T09:42:07.854Z,98767.94
2023-04-09T09:44:35.394Z,98762.53
2023-04-09T09:47:04.903Z,98763.22
2023-04-09T09:49:32.457Z,98759.88
2023-04-09T09:52:03.006Z,98766.94
2023-04-09T09:54:38.892Z,98762.50
2023-04-09T09:57:09.871Z,98757.78
2023-04-09T10:00:00.864Z,98762.81
2023-04-09T10:02:33.002Z,98758.00
2023-04-09T10:05:01.443Z,98758.03
2023-04-09T10:07:30.326Z,98753.47
2023-04-09T10:09:58.903Z,98750.53
2023-04-09T10:12:27.405Z,98747.25
2023-04-09T10:14:58.545Z,98754.44
2023-04-09T10:17:26.684Z,98749.28
2023-04-09T10:20:14.636Z,98734.88
2023-04-09T10:22:45.673Z,98738.59
2023-04-09T10:25:13.320Z,98735.72
2023-04-09T10:27:40.885Z,98734.94
2023-04-09T10:30:10.803Z,98735.72
2023-04-09T10:32:38.569Z,98737.75
2023-04-09T10:35:07.074Z,98735.88
2023-04-09T10:37:36.006Z,98733.22
2023-04-09T10:40:03.970Z,98730.81
2023-04-09T10:42:37.364Z,98721.00
2023-04-09T10:45:12.434Z,98726.50
2023-04-09T10:47:42.932Z,98727.50
2023-04-09T10:50:27.993Z,98727.50
2023-04-09T10:52:57.579Z,98728.13
2023-04-09T10:55:42.693Z,98726.69
2023-04-09T10:58:13.712Z,98732.06
2023-04-09T11:00:46.569Z,98726.09
2023-04-09T11:03:27.924Z,98728.94
2023-04-09T11:06:10.340Z,98730.56
2023-04-09T11:08:39.089Z,98727.53
2023-04-09T11:11:06.706Z,98719.16
2023-04-09T11:13:34.726Z,98726.53
2023-04-09T11:16:07.033Z,98726.94
2023-04-09T11:18:35.690Z,98723.03
2023-04-09T11:21:04.532Z,98729.00
2023-04-09T11:23:33.198Z,98721.19
2023-04-09T11:26:02.094Z,98728.97
2023-04-09T11:28:29.661Z,98719.38
2023-04-09T11:30:57.081Z,98724.88
2023-04-09T11:33:32.352Z,98718.94
2023-04-09T11:35:59.911Z,98720.06
2023-04-09T11:38:27.382Z,98716.00
2023-04-09T11:40:58.167Z,98720.69
2023-04-09T11:43:25.864Z,98715.38
2023-04-09T11:45:53.965Z,98705.38
2023-04-09T11:48:24.377Z,98706.63
2023-04-09T11:50:52.811Z,98695.00
2023-04-09T11:53:22.028Z,98696.31
2023-04-09T11:55:53.479Z,98701.38
2023-04-09T11:58:28.128Z,98692.56
2023-04-09T12:00:56.613Z,98708.72
2023-04-09T12:03:34.213Z,98709.50
2023-04-09T12:06:03.455Z,98708.84
2023-04-09T12:08:31.594Z,98706.31
2023-04-09T12:11:09.482Z,98711.69
2023-04-09T12:13:37.122Z,98706.25
2023-04-09T12:16:05.796Z,98715.72
2023-04-09T12:18:37.542Z,98715.38
2023-04-09T12:21:06.239Z,98711.75
2023-04-09T12:23:33.766Z,98718.59
2023-04-09T12:26:02.293Z,98714.19
2023-04-09T12:28:30.001Z,98710.31
2023-04-09T12:30:59.679Z,98706.84
2023-04-09T12:33:27.535Z,98710.16
2023-04-09T12:35:56.199Z,98709.22
2023-04-09T12:38:23.743Z,98720.94
2023-04-09T12:40:51.297Z,98715.75
2023-04-09T12:43:18.785Z,98710.59
2023-04-09T12:45:47.039Z,98711.66
2023-04-09T12:48:14.574Z,98709.13
2023-04-09T12:50:42.105Z,98705.97
2023-04-09T12:53:09.567Z,98701.50
2023-04-09T12:55:37.033Z,98698.41
2023-04-09T12:58:04.505Z,98691.56
2023-04-09T13:00:33.584Z,98687.34
2023-04-09T13:03:01.488Z,98682.44
2023-04-09T13:05:31.597Z,98680.25
2023-04-09T13:07:59.196Z,98682.03
2023-04-09T13:10:26.792Z,98685.00
2023-04-09T13:12:54.254Z,98681.19
2023-04-09T13:15:22.195Z,98677.31
2023-04-09T13:17:49.790Z,98679.56
2023-04-09T13:20:17.363Z,98681.13
2023-04-09T13:22:49.016Z,98673.53
2023-04-09T13:25:16.821Z,98680.47
2023-04-09T13:27:44.508Z,98671.84
2023-04-09T13:30:12.149Z,98680.28
2023-04-09T13:32:39.709Z,98671.63
2023-04-09T13:35:07.730Z,98674.13
2023-04-09T13:37:35.406Z,98675.84
2023-04-09T13:40:02.933Z,98672.34
2023-04-09T13:42:31.885Z,98675.16
2023-04-09T13:44:59.356Z,98668.34
2023-04-09T13:47:27.304Z,98665.88
2023-04-09T13:49:54.772Z,98664.16
2023-04-09T13:52:22.284Z,98673.88
2023-04-09T13:54:49.835Z,98662.53
2023-04-09T13:57:17.460Z,98656.28
2023-04-09T13:59:44.936Z,98655.47
2023-04-09T14:02:12.661Z,98649.31
2023-04-09T14:04:40.593Z,98643.16
2023-04-09T14:07:08.602Z,98649.28
2023-04-09T14:09:36.089Z,98645.13
2023-04-09T14:12:03.690Z,98640.19
2023-04-09T14:14:31.368Z,98651.81
2023-04-09T14:16:58.874Z,98645.34
2023-04-09T14:19:26.425Z,98650.69
2023-04-09T14:21:55.402Z,98649.03
2023-04-09T14:24:23.404Z,98649.81
2023-04-09T14:26:53.606Z,98645.75
2023-04-09T14:29:22.212Z,98638.19
2023-04-09T14:31:49.889Z,98650.50
2023-04-09T14:34:17.472Z,98653.00
2023-04-09T14:36:44.992Z,98651.97
2023-04-09T14:39:12.394Z,98651.94
2023-04-09T14:41:39.929Z,98646.59
2023-04-09T14:44:07.732Z,98648.66
2023-04-09T14:46:36.827Z,98630.81
2023-04-09T14:49:04.345Z,98634.31
2023-04-09T14:51:31.844Z,98632.63
2023-04-09T14:53:59.737Z,98630.94
2023-04-09T14:56:27.550Z,98628.47
2023-04-09T14:58:55.116Z,98627.34
2023-04-09T15:01:22.810Z,98619.50
2023-04-09T15:03:50.793Z,98618.97
2023-04-09T15:06:18.433Z,98619.41
2023-04-09T15:08:45.922Z,98620.03
2023-04-09T15:11:17.461Z,98615.94
2023-04-09T15:13:45.355Z,98621.47
2023-04-09T15:16:22.033Z,98617.59
2023-04-09T15:18:52.189Z,98625.03
2023-04-09T15:21:20.895Z,98613.88
2023-04-09T15:23:51.100Z,98615.84
2023-04-09T15:26:18.713Z,98607.53
2023-04-09T15:28:46.428Z,98619.50
2023-04-09T15:31:13.920Z,98616.47
2023-04-09T15:33:45.636Z,98624.91
2023-04-09T15:36:13.243Z,98621.03
2023-04-09T15:38:42.083Z,98622.91
2023-04-09T15:41:10.640Z,98626.03
2023-04-09T15:43:38.201Z,98627.84
2023-04-09T15:46:10.084Z,98623.38
2023-04-09T15:48:38.135Z,98617.78
2023-04-09T15:51:05.989Z,98613.50
2023-04-09T15:53:33.644Z,98622.84
2023-04-09T15:56:01.181Z,98629.25
2023-04-09T15:58:28.995Z,98629.09
2023-04-09T16:00:56.503Z,98625.81
2023-04-09T16:03:23.964Z,98634.69
2023-04-09T16:05:51.598Z,98631.84
2023-04-09T16:08:19.087Z,98628.56
2023-04-09T16:10:46.552Z,98627.97
2023-04-09T16:13:14.240Z,98629.59
2023-04-09T16:15:41.658Z,98635.09
2023-04-09T16:18:10.280Z,98629.56
2023-04-09T16:20:37.798Z,98627.44
2023-04-09T16:23:05.504Z,98623.53
2023-04-09T16:25:32.930Z,98628.00
2023-04-09T16:28:00.436Z,98623.66
2023-04-09T16:30:28.482Z,98628.81
2023-04-09T16:32:56.726Z,98625.97
2023-04-09T16:35:24.284Z,98626.41
2023-04-09T16:37:52.070Z,98633.13
2023-04-09T16:40:24.429Z,98628.03
2023-04-09T16:42:52.040Z,98630.09
2023-04-09T16:45:19.595Z,98627.03
2023-04-09T16:47:50.854Z,98631.78
2023-04-09T16:50:20.752Z,98626.44
2023-04-09T16:52:48.631Z,98627.25
2023-04-09T16:55:16.813Z,98630.94
2023-04-09T16:57:44.334Z,98623.38
2023-04-09T17:00:12.994Z,98634.44
2023-04-09T17:02:40.608Z,98619.88
2023-04-09T17:05:09.061Z,98629.31
2023-04-09T17:07:36.574Z,98629.69
2023-04-09T17:10:04.436Z,98625.00
2023-04-09T17:12:32.628Z,98627.69
2023-04-09T17:15:01.061Z,98628.94
2023-04-09T17:17:28.537Z,98629.75
2023-04-09T17:19:58.544Z,98633.22
2023-04-09T17:22:26.109Z,98640.81
2023-04-09T17:24:53.976Z,98642.25
2023-04-09T17:27:21.911Z,98640.59
2023-04-09T17:29:49.497Z,98640.38
2023-04-09T17:32:16.965Z,98647.16
2023-04-09T17:34:47.543Z,98654.78
2023-04-09T17:37:15.143Z,98649.44
2023-04-09T17:39:42.616Z,98658.44
2023-04-09T17:42:11.950Z,98655.56
2023-04-09T17:44:39.425Z,98659.28
2023-04-09T17:47:07.596Z,98655.97
2023-04-09T17:49:35.136Z,98660.09
2023-04-09T17:52:02.565Z,98655.56
2023-04-09T17:54:38.219Z,98655.34
2023-04-09T17:57:07.348Z,98651.66
2023-04-09T17:59:34.884Z,98655.53
2023-04-09T18:02:03.703Z,98660.47
2023-04-09T18:04:31.965Z,98654.72
2023-04-09T18:06:59.694Z,98654.72
2023-04-09T18:09:27.194Z,98658.19
2023-04-09T18:11:56.576Z,98656.34
2023-04-09T18:14:24.195Z,98661.06
2023-04-09T18:16:52.051Z,98662.88
2023-04-09T18:19:19.593Z,98665.34
2023-04-09T18:21:47.499Z,98669.25
2023-04-09T18:24:15.213Z,98669.44
2023-04-09T18:26:42.718Z,98677.84
2023-04-09T18:29:10.360Z,98682.53
2023-04-09T18:31:37.874Z,98669.81
2023-04-09T18:34:05.839Z,98680.06
2023-04-09T18:36:33.687Z,98677.22
2023-04-09T18:39:01.310Z,98680.91
2023-04-09T18:41:30.222Z,98682.53
2023-04-09T18:43:57.674Z,98679.47
2023-04-09T18:46:25.257Z,98680.53
2023-04-09T18:48:53.014Z,98678.72
2023-04-09T18:51:21.159Z,98689.56
2023-04-09T18:53:53.075Z,98684.25
2023-04-09T18:56:21.427Z,98683.22
2023-04-09T18:58:48.929Z,98682.84
2023-04-09T19:01:17.704Z,98681.81
2023-04-09T19:03:45.907Z,98692.88
2023-04-09T19:06:18.420Z,98692.88
2023-04-09T19:08:46.880Z,98691.25
2023-04-09T19:11:14.622Z,98699.44
2023-04-09T19:13:42.106Z,98691.66
2023-04-09T19:16:09.709Z,98685.09
2023-04-09T19:18:37.612Z,98677.69
2023-04-09T19:21:07.560Z,98682.59
2023-04-09T19:23:35.466Z,98678.25
2023-04-09T19:26:03.439Z,98678.66
2023-04-09T19:28:31.209Z,98684.56
2023-04-09T19:31:00.644Z,98686.25
2023-04-09T19:33:29.481Z,98679.47
2023-04-09T19:35:57.126Z,98671.88
2023-04-09T19:38:24.609Z,98678.66
2023-04-09T19:40:52.084Z,98680.09
2023-04-09T19:43:19.614Z,98677.63
2023-04-09T19:45:47.116Z,98668.81
2023-04-09T19:48:14.694Z,98672.06
2023-04-09T19:50:43.363Z,98674.50
2023-04-09T19:53:11.159Z,98678.56
2023-04-09T19:55:39.324Z,98673.47
2023-04-09T19:58:07.324Z,98670.19
2023-04-09T20:00:34.929Z,98672.03
2023-04-09T20:03:03.300Z,98678.56
2023-04-09T20:05:31.023Z,98676.28
2023-04-09T20:07:58.402Z,98669.34
2023-04-09T20:10:26.072Z,98677.72
2023-04-09T20:12:54.068Z,98678.94
2023-04-09T20:15:21.535Z,98672.78
2023-04-09T20:17:49.900Z,98682.59
2023-04-09T20:20:19.964Z,98672.16
2023-04-09T20:22:56.258Z,98677.47
2023-04-09T20:25:24.959Z,98681.56
2023-04-09T20:27:53.394Z,98676.44
2023-04-09T20:30:21.305Z,98669.88
2023-04-09T20:32:49.297Z,98674.56
2023-04-09T20:35:17.067Z,98679.47
2023-04-09T20:37:44.572Z,98680.88
2023-04-09T20:40:12.369Z,98688.66
2023-04-09T20:42:42.559Z,98678.78
2023-04-09T20:45:10.721Z,98676.91
2023-04-09T20:47:38.309Z,98672.38
2023-04-09T20:50:06.130Z,98669.31
2023-04-09T20:52:33.568Z,98669.88
2023-04-09T20:55:01.233Z,98674.72
2023-04-09T20:57:28.992Z,98672.69
2023-04-09T20:59:56.430Z,98673.06
2023-04-09T21:02:24.085Z,98679.38
2023-04-09T21:04:51.751Z,98682.03
2023-04-09T21:07:19.269Z,98673.63
2023-04-09T21:09:47.102Z,98680.78
2023-04-09T21:12:14.574Z,98683.00
2023-04-09T21:14:42.144Z,98684.00
2023-04-09T21:17:09.898Z,98683.19
2023-04-09T21:19:37.384Z,98688.34
2023-04-09T21:22:05.029Z,98688.94
2023-04-09T21:24:34.193Z,98686.50
2023-04-09T21:27:01.910Z,98685.69
2023-04-09T21:29:29.389Z,98687.31
2023-04-09T21:31:57.290Z,98688.50
2023-04-09T21:34:24.849Z,98684.41
2023-04-09T21:36:52.478Z,98687.44
2023-04-09T21:39:19.963Z,98695.63
2023-04-09T21:41:47.646Z,98696.00
2023-04-09T21:44:15.104Z,98697.03
2023-04-09T21:46:43.137Z,98693.34
2023-04-09T21:49:11.171Z,98702.53
2023-04-09T21:51:39.058Z,98706.81
2023-04-09T21:54:10.229Z,98695.38
2023-04-09T21:56:38.936Z,98697.03
2023-04-09T21:59:06.422Z,98695.91
2023-04-09T22:01:35.116Z,98696.34
2023-04-09T22:04:03.154Z,98697.13
2023-04-09T22:06:31.197Z,98693.19
2023-04-09T22:08:58.932Z,98685.59
2023-04-09T22:11:28.105Z,98684.13
2023-04-09T22:13:57.440Z,98679.41
2023-04-09T22:16:26.367Z,98676.50
2023-04-09T22:18:54.892Z,98672.59
2023-04-09T22:21:22.757Z,98680.72
2023-04-09T22:23:50.474Z,98673.34
2023-04-09T22:26:17.965Z,98676.56
2023-04-09T22:28:45.716Z,98676.38
2023-04-09T22:31:13.661Z,98672.28
2023-04-09T22:33:41.640Z,98678.34
2023-04-09T22:36:09.104Z,98674.81
2023-04-09T22:38:37.008Z,98683.31
2023-04-09T22:41:04.723Z,98683.25
2023-04-09T22:43:32.198Z,98682.00
2023-04-09T22:45:59.791Z,98687.84
2023-04-09T22:48:29.031Z,98689.19
2023-04-09T22:50:57.882Z,98685.44
2023-04-09T22:53:25.530Z,98689.81
2023-04-09T22:55:54.963Z,98694.69
2023-04-09T23:02:10.072Z,98694.97
2023-04-09T23:04:37.803Z,98688.28
2023-04-09T23:07:05.383Z,98688.66
2023-04-09T23:09:32.913Z,98692.06
2023-04-09T23:12:02.310Z,98690.41
2023-04-09T23:14:29.781Z,98685.84
2023-04-09T23:16:58.075Z,98695.00
2023-04-09T23:19:25.542Z,98693.06
2023-04-09T23:21:53.030Z,98686.31
2023-04-09T23:24:20.481Z,98690.53
2023-04-09T23:26:48.070Z,98680.31
2023-04-09T23:29:15.459Z,98675.00
2023-04-09T23:31:43.003Z,98673.53
2023-04-09T23:34:10.778Z,98673.91
2023-04-09T23:36:38.385Z,98668.22
2023-04-09T23:39:06.230Z,98663.09
2023-04-09T23:41:33.690Z,98665.66
2023-04-09T23:44:01.141Z,98659.47
2023-04-09T23:46:29.736Z,98659.38
2023-04-09T23:48:57.356Z,98665.19
2023-04-09T23:51:24.880Z,98659.25
2023-04-09T23:53:52.645Z,98661.28
2023-04-09T23:56:20.324Z,98657.31
2023-04-09T23:58:47.837Z,98658.53
